Time;durP1;ratioP1;P1;durP2;ratioP2;P2;SDS_P1;SDS_P2;PMS_P1;PMS_P2;Temp;Humidity;BMP_temperature;BMP_pressure;BME280_temperature;BME280_humidity;BME280_pressure;Samples;Min_cycle;Max_cycle;Signal;HPM_P1;HPM_P2
2023/05/21 00:01:02;;;;;;;4.60;3.75;;;;;;;15.07;62.92;101573.81;3613693;39;20050;-67
2023/05/21 00:03:29;;;;;;;4.07;3.72;;;;;;;15.08;63.28;101591.78;3613513;39;20055;-65
2023/05/21 00:05:55;;;;;;;4.00;3.42;;;;;;;15.05;63.49;101580.31;3614205;39;20053;-66
2023/05/21 00:08:22;;;;;;;5.18;3.83;;;;;;;15.03;63.51;101583.13;3615461;39;20050;-67
2023/05/21 00:10:48;;;;;;;4.20;3.60;;;;;;;15.00;63.85;101577.03;3619247;39;20070;-67
2023/05/21 00:13:14;;;;;;;5.50;3.50;;;;;;;14.64;63.67;101516.31;3618519;39;20043;-67
2023/05/21 00:15:40;;;;;;;5.22;4.13;;;;;;;14.94;64.45;101572.94;3615672;39;20573;-66
2023/05/21 00:18:05;;;;;;;5.22;4.00;;;;;;;14.88;64.54;101562.53;3613830;39;20054;-66
2023/05/21 00:20:31;;;;;;;4.72;4.20;;;;;;;14.83;64.65;101559.25;3614187;39;20053;-66
2023/05/21 00:23:03;;;;;;;5.22;4.00;;;;;;;14.76;65.02;101558.78;3618127;39;20063;-66
2023/05/21 00:25:29;;;;;;;6.18;3.70;;;;;;;14.78;65.15;101555.97;3614539;39;20063;-66
2023/05/21 00:27:55;;;;;;;3.95;3.42;;;;;;;14.80;65.04;101559.44;3621469;39;20055;-66
2023/05/21 00:30:21;;;;;;;4.45;3.90;;;;;;;14.78;65.17;101555.97;3618698;39;20119;-67
2023/05/21 00:32:47;;;;;;;5.82;4.50;;;;;;;14.74;65.32;101560.72;3615466;39;20166;-67
2023/05/21 00:35:12;;;;;;;5.25;4.25;;;;;;;14.72;65.78;101559.13;3618087;39;20051;-67
2023/05/21 00:37:39;;;;;;;5.95;4.55;;;;;;;14.70;66.09;101556.50;3613796;39;20404;-67
2023/05/21 00:40:07;;;;;;;6.25;5.65;;;;;;;14.66;66.13;101551.41;3613727;39;20053;-67
2023/05/21 00:42:38;;;;;;;7.03;6.32;;;;;;;14.65;66.33;101557.78;3616666;39;20090;-66
2023/05/21 00:45:06;;;;;;;10.07;8.25;;;;;;;14.61;66.09;101555.28;3615434;39;20054;-67
2023/05/21 00:47:33;;;;;;;11.27;9.27;;;;;;;14.57;66.70;101542.94;3617034;39;20348;-67
2023/05/21 00:50:03;;;;;;;11.10;9.88;;;;;;;14.58;66.51;101555.47;3614881;39;20058;-67
2023/05/21 00:52:29;;;;;;;12.80;10.52;;;;;;;14.56;66.32;101551.16;3615974;39;20397;-67
2023/05/21 00:54:55;;;;;;;10.93;9.70;;;;;;;14.54;66.72;101553.97;3617095;39;20055;-67
2023/05/21 00:57:25;;;;;;;12.55;9.60;;;;;;;14.52;66.80;101555.03;3618249;39;20046;-67
2023/05/21 00:59:53;;;;;;;9.02;7.80;;;;;;;14.48;66.82;101554.34;3619763;39;20062;-68
2023/05/21 01:02:18;;;;;;;8.52;7.18;;;;;;;14.47;67.46;101558.03;3611648;39;20399;-68
2023/05/21 01:04:45;;;;;;;8.40;6.82;;;;;;;14.46;67.05;101555.41;3618422;39;20054;-68
2023/05/21 01:07:12;;;;;;;7.07;6.38;;;;;;;14.45;67.60;101548.28;3616799;39;20366;-68
2023/05/21 01:09:40;;;;;;;8.32;6.18;;;;;;;14.41;67.81;101553.00;3620478;39;20355;-68
2023/05/21 01:12:08;;;;;;;5.95;5.32;;;;;;;14.36;67.77;101561.41;3619390;39;20058;-67
2023/05/21 01:14:36;;;;;;;6.07;5.05;;;;;;;14.32;68.06;101553.63;3620089;39;20120;-68
2023/05/21 01:17:05;;;;;;;5.63;5.03;;;;;;;14.07;68.00;101511.97;3616553;39;20274;-68
2023/05/21 01:19:34;;;;;;;5.38;4.85;;;;;;;14.07;68.43;101520.06;3622282;39;20051;-67
2023/05/21 01:22:06;;;;;;;5.55;5.00;;;;;;;14.29;68.08;101553.81;3624671;39;20065;-67
2023/05/21 01:24:32;;;;;;;5.53;4.68;;;;;;;14.27;68.42;101548.53;3620644;39;20054;-67
2023/05/21 01:27:05;;;;;;;5.30;4.80;;;;;;;14.24;68.19;101548.72;3618758;39;20402;-67
2023/05/21 01:29:31;;;;;;;6.17;4.70;;;;;;;14.22;68.89;101547.09;3616337;39;20043;-67
2023/05/21 01:32:31;;;;;;;9.85;4.88;;;;;;;14.17;69.10;101548.22;3618998;39;20078;-67
2023/05/21 01:35:08;;;;;;;5.35;4.63;;;;;;;14.14;68.71;101545.75;3620613;39;20397;-67
2023/05/21 01:37:48;;;;;;;6.88;4.72;;;;;;;14.13;69.03;101540.44;3617364;39;20381;-68
2023/05/21 01:40:22;;;;;;;5.25;4.78;;;;;;;14.14;68.85;101534.06;3622932;39;20115;-67
2023/05/21 01:42:48;;;;;;;5.35;4.63;;;;;;;14.12;69.26;101547.69;3618668;39;20481;-67
2023/05/21 01:45:17;;;;;;;5.60;4.70;;;;;;;14.09;69.50;101542.47;3616941;39;20047;-67
2023/05/21 01:47:48;;;;;;;6.95;4.88;;;;;;;13.93;69.53;101517.41;3616638;39;20047;-67
2023/05/21 01:50:17;;;;;;;6.97;4.82;;;;;;;14.12;69.39;101542.28;3616378;39;20381;-67
2023/05/21 01:52:59;;;;;;;7.72;4.68;;;;;;;14.04;69.57;101539.19;3618030;39;20058;-67
2023/05/21 01:55:26;;;;;;;5.55;4.50;;;;;;;14.05;69.21;101530.13;3614930;39;20086;-68
2023/05/21 01:57:54;;;;;;;5.07;4.40;;;;;;;14.14;69.26;101543.06;3616310;39;20057;-67
2023/05/21 02:00:23;;;;;;;5.35;4.82;;;;;;;14.13;69.06;101544.00;3618953;39;20042;-67
2023/05/21 02:02:50;;;;;;;5.15;4.57;;;;;;;13.65;69.42;101459.75;3613879;39;20114;-67
2023/05/21 02:05:17;;;;;;;6.40;4.97;;;;;;;14.18;69.20;101538.31;3614576;39;20255;-67
2023/05/21 02:07:44;;;;;;;5.10;4.60;;;;;;;14.19;69.18;101534.63;3614419;39;20375;-68
2023/05/21 02:10:10;;;;;;;5.05;4.40;;;;;;;14.22;69.48;101528.16;3617019;39;20091;-67
2023/05/21 02:12:37;;;;;;;6.32;4.60;;;;;;;14.22;69.50;101530.88;3618052;39;20054;-67
2023/05/21 02:15:03;;;;;;;5.65;4.57;;;;;;;13.70;69.89;101441.41;3614435;39;20127;-67
2023/05/21 02:17:32;;;;;;;6.03;4.40;;;;;;;14.27;69.13;101537.72;3615927;39;20325;-67
2023/05/21 02:20:10;;;;;;;5.10;4.57;;;;;;;14.31;69.00;101541.06;3616221;39;20058;-67
2023/05/21 02:22:40;;;;;;;5.25;4.35;;;;;;;14.34;68.94;101524.66;3616050;39;20051;-68
2023/05/21 02:25:09;;;;;;;5.32;4.55;;;;;;;14.33;69.07;101531.00;3617518;39;20128;-68
2023/05/21 02:27:37;;;;;;;4.53;4.15;;;;;;;14.33;68.91;101531.00;3616852;39;20050;-68
2023/05/21 02:30:09;;;;;;;4.63;4.13;;;;;;;14.31;69.22;101530.25;3613905;39;20393;-68
2023/05/21 02:32:35;;;;;;;8.70;4.70;;;;;;;13.98;69.18;101480.13;3617236;39;20050;-68
2023/05/21 02:35:03;;;;;;;5.45;4.47;;;;;;;14.32;68.89;101532.84;3614114;39;20047;-67
2023/05/21 02:37:33;;;;;;;4.72;4.32;;;;;;;14.35;68.96;101529.06;3613849;39;20393;-66
2023/05/21 02:40:08;;;;;;;6.28;4.20;;;;;;;14.35;69.26;101542.59;3614466;39;20051;-66
2023/05/21 02:42:35;;;;;;;5.30;4.60;;;;;;;14.35;69.09;101516.41;3618347;39;20057;-67
2023/05/21 02:45:01;;;;;;;5.72;4.70;;;;;;;14.43;69.01;101517.72;3614709;39;20054;-67
2023/05/21 02:47:27;;;;;;;7.47;4.78;;;;;;;14.46;69.23;101518.44;3621554;39;20080;-67
2023/05/21 02:49:52;;;;;;;5.55;4.25;;;;;;;14.48;68.89;101521.88;3618152;39;20135;-66
2023/05/21 02:52:22;;;;;;;4.70;4.20;;;;;;;14.47;68.60;101514.75;3619686;39;20062;-67
2023/05/21 02:54:48;;;;;;;5.05;4.22;;;;;;;14.52;68.90;101518.00;3615465;39;20116;-66
2023/05/21 02:57:14;;;;;;;4.78;4.32;;;;;;;14.53;68.57;101503.53;3615312;39;20051;-67
2023/05/21 02:59:40;;;;;;;6.95;4.35;;;;;;;14.54;68.69;101505.25;3612105;39;20050;-67
2023/05/21 03:02:06;;;;;;;6.75;4.63;;;;;;;14.54;68.71;101499.00;3617416;39;20305;-67
2023/05/21 03:04:32;;;;;;;6.18;4.40;;;;;;;14.53;68.66;101503.53;3613934;39;20043;-67
2023/05/21 03:07:00;;;;;;;5.68;4.25;;;;;;;14.51;69.33;101504.59;3613766;39;20259;-67
2023/05/21 03:09:27;;;;;;;6.35;4.60;;;;;;;14.28;69.03;101462.84;3613953;39;20039;-67
2023/05/21 03:11:52;;;;;;;6.70;4.40;;;;;;;14.45;69.30;101489.63;3617793;39;20059;-67
2023/05/21 03:14:18;;;;;;;5.50;4.82;;;;;;;14.49;69.18;101501.09;3613639;39;20054;-67
2023/05/21 03:16:44;;;;;;;6.47;4.95;;;;;;;14.47;69.59;101495.81;3613555;39;20409;-67
2023/05/21 03:19:11;;;;;;;4.97;4.47;;;;;;;14.46;69.55;101496.78;3616112;39;20054;-68
2023/05/21 03:21:37;;;;;;;6.05;4.90;;;;;;;14.48;69.42;101491.25;3614920;39;20045;-68
2023/05/21 03:24:04;;;;;;;5.65;4.90;;;;;;;14.45;69.69;101495.03;3619962;39;20074;-68
2023/05/21 03:26:30;;;;;;;5.20;4.63;;;;;;;14.43;70.13;101486.16;3618255;39;20058;-68
2023/05/21 03:28:57;;;;;;;4.82;4.40;;;;;;;14.35;70.30;101472.28;3614035;39;20388;-68
2023/05/21 03:31:25;;;;;;;6.68;4.97;;;;;;;14.45;70.44;101497.72;3613967;39;20055;-67
2023/05/21 03:33:51;;;;;;;6.40;5.20;;;;;;;14.46;70.26;101485.06;3614491;39;20055;-66
2023/05/21 03:36:17;;;;;;;7.43;4.97;;;;;;;14.47;70.30;101494.94;3610920;39;20043;-67
2023/05/21 03:38:43;;;;;;;7.10;5.22;;;;;;;14.36;70.11;101482.13;3614212;39;20051;-66
2023/05/21 03:41:10;;;;;;;5.70;5.10;;;;;;;14.46;70.36;101507.59;3614728;39;20051;-66
2023/05/21 03:43:35;;;;;;;7.25;5.13;;;;;;;14.42;70.45;101480.84;3607240;39;20293;-67
2023/05/21 03:46:01;;;;;;;5.22;4.72;;;;;;;14.24;70.30;101454.09;3615469;39;20062;-67
2023/05/21 03:48:27;;;;;;;5.75;5.15;;;;;;;14.50;70.52;101495.59;3614100;39;20050;-67
2023/05/21 03:50:52;;;;;;;5.95;4.80;;;;;;;14.52;70.39;101496.38;3621584;39;20081;-67
2023/05/21 03:53:18;;;;;;;5.75;4.63;;;;;;;14.54;70.14;101510.69;3618764;39;20055;-67
2023/05/21 03:55:44;;;;;;;7.78;5.07;;;;;;;14.57;70.03;101487.97;3613778;39;22095;-68
2023/05/21 03:58:10;;;;;;;8.10;5.03;;;;;;;14.59;70.47;101486.88;3612280;39;20062;-68
2023/05/21 04:00:36;;;;;;;5.90;5.20;;;;;;;14.60;70.36;101485.91;3613536;39;20095;-68
2023/05/21 04:03:03;;;;;;;5.95;5.25;;;;;;;14.59;70.39;101489.59;3613466;39;20421;-66
2023/05/21 04:05:29;;;;;;;5.60;5.00;;;;;;;14.60;70.53;101494.03;3613422;39;20150;-66
2023/05/21 04:07:54;;;;;;;5.20;4.70;;;;;;;14.60;70.34;101488.63;3616452;39;20378;-67
2023/05/21 04:10:21;;;;;;;6.63;5.10;;;;;;;14.62;70.19;101492.09;3615468;39;20050;-65
2023/05/21 04:12:51;;;;;;;6.05;5.03;;;;;;;14.61;70.51;101489.47;3613523;39;20156;-66
2023/05/21 04:15:18;;;;;;;5.47;4.80;;;;;;;14.50;70.68;101476.66;3615029;39;20047;-66
2023/05/21 04:17:44;;;;;;;6.07;5.47;;;;;;;14.55;70.65;101496.16;3604689;39;20343;-66
2023/05/21 04:20:12;;;;;;;7.68;5.00;;;;;;;14.55;70.96;101490.75;3615817;39;20397;-66
2023/05/21 04:22:39;;;;;;;5.47;4.95;;;;;;;14.52;71.16;101496.38;3612892;39;20386;-66
2023/05/21 04:25:05;;;;;;;6.20;5.07;;;;;;;14.53;71.09;101497.25;3612675;39;20480;-66
2023/05/21 04:27:31;;;;;;;6.97;5.00;;;;;;;14.53;70.95;101505.38;3613193;39;20051;-67
2023/05/21 04:29:56;;;;;;;7.00;5.35;;;;;;;14.52;71.30;101500.91;3613868;39;20054;-67
2023/05/21 04:32:23;;;;;;;7.05;5.60;;;;;;;14.02;71.33;101422.22;3613040;39;20058;-66
2023/05/21 04:34:49;;;;;;;5.97;5.35;;;;;;;14.51;71.44;101499.19;3614760;39;20066;-66
2023/05/21 04:37:16;;;;;;;6.35;5.38;;;;;;;14.52;71.33;101503.63;3613780;39;20124;-66
2023/05/21 04:39:43;;;;;;;5.32;4.82;;;;;;;14.52;71.52;101507.19;3612952;39;20043;-66
2023/05/21 04:42:12;;;;;;;6.18;5.47;;;;;;;14.52;71.64;101500.91;3613374;39;20341;-66
2023/05/21 04:44:39;;;;;;;6.15;5.55;;;;;;;14.53;71.31;101508.09;3613677;39;20061;-66
2023/05/21 04:47:06;;;;;;;10.15;5.85;;;;;;;14.52;71.46;101504.47;3618688;39;20050;-66
2023/05/21 04:49:33;;;;;;;6.25;5.40;;;;;;;14.54;72.08;101513.38;3614858;39;20079;-66
2023/05/21 04:52:00;;;;;;;5.95;4.95;;;;;;;14.54;72.33;101505.25;3613836;39;20356;-66
2023/05/21 04:54:27;;;;;;;7.25;5.57;;;;;;;14.55;72.03;101506.97;3614579;39;20062;-66
2023/05/21 04:56:52;;;;;;;6.63;5.90;;;;;;;14.57;71.58;101507.75;3614180;39;20051;-66
2023/05/21 04:59:18;;;;;;;6.15;5.55;;;;;;;14.57;72.11;101510.47;3615628;39;20428;-66
2023/05/21 05:01:44;;;;;;;6.28;5.75;;;;;;;14.61;72.20;101511.13;3613266;39;20358;-66
2023/05/21 05:04:10;;;;;;;6.15;5.55;;;;;;;14.25;71.92;101450.41;3613314;39;20062;-66
2023/05/21 05:06:36;;;;;;;7.53;5.55;;;;;;;14.59;72.04;101508.53;3612399;39;20090;-66
2023/05/21 05:09:01;;;;;;;6.30;5.70;;;;;;;14.64;72.11;101510.91;3613693;39;20062;-66
2023/05/21 05:11:27;;;;;;;10.07;5.88;;;;;;;14.66;72.20;101506.28;3612888;39;20396;-66
2023/05/21 05:13:52;;;;;;;6.82;5.85;;;;;;;14.68;72.40;101503.44;3613513;39;20409;-66
2023/05/21 05:16:23;;;;;;;7.57;6.50;;;;;;;14.69;72.18;101503.38;3614779;39;20055;-65
2023/05/21 05:18:51;;;;;;;7.03;6.32;;;;;;;14.38;71.94;101442.31;3613579;39;20134;-65
2023/05/21 05:21:17;;;;;;;7.25;5.88;;;;;;;14.76;72.16;101501.09;3613090;39;20051;-65
2023/05/21 05:23:42;;;;;;;7.65;6.10;;;;;;;14.79;72.57;101498.19;3612530;39;20167;-66
2023/05/21 05:26:09;;;;;;;7.68;6.35;;;;;;;14.81;71.74;101497.13;3613124;39;20051;-66
2023/05/21 05:28:35;;;;;;;7.57;5.90;;;;;;;14.82;71.51;101487.16;3612850;39;20058;-66
2023/05/21 05:31:01;;;;;;;7.35;5.85;;;;;;;14.89;71.73;101499.28;3613536;39;20381;-66
2023/05/21 05:33:26;;;;;;;7.40;6.18;;;;;;;14.94;71.42;101498.94;3611864;39;20058;-66
2023/05/21 05:35:52;;;;;;;8.48;6.65;;;;;;;14.99;71.31;101500.38;3613552;39;20055;-66
2023/05/21 05:38:18;;;;;;;8.07;6.10;;;;;;;15.07;71.12;101495.28;3614759;39;20247;-67
2023/05/21 05:40:44;;;;;;;7.10;6.03;;;;;;;15.11;70.94;101503.19;3615033;39;20062;-65
2023/05/21 05:43:09;;;;;;;6.88;5.55;;;;;;;15.15;70.66;101502.00;3614053;39;20065;-66
2023/05/21 05:45:35;;;;;;;7.93;6.05;;;;;;;15.20;70.45;101500.72;3605932;39;20132;-65
2023/05/21 05:48:01;;;;;;;8.05;6.53;;;;;;;15.27;70.71;101501.16;3614465;39;20055;-65
2023/05/21 05:50:26;;;;;;;7.88;6.30;;;;;;;15.30;70.08;101498.22;3616387;39;20312;-65
2023/05/21 05:52:52;;;;;;;6.40;5.90;;;;;;;15.36;69.87;101505.91;3614778;39;20055;-65
2023/05/21 05:55:18;;;;;;;6.20;5.70;;;;;;;15.37;69.90;101499.50;3614919;39;20062;-65
2023/05/21 05:57:43;;;;;;;9.05;6.28;;;;;;;15.46;69.81;101495.28;3614285;39;20212;-66
2023/05/21 06:00:10;;;;;;;6.50;5.90;;;;;;;15.33;69.29;101465.50;3615466;39;20374;-66
2023/05/21 06:02:36;;;;;;;7.00;6.30;;;;;;;15.59;69.27;101504.25;3617473;39;20058;-66
2023/05/21 06:05:03;;;;;;;6.35;5.78;;;;;;;15.31;69.83;101451.19;3614833;39;20411;-67
2023/05/21 06:07:28;;;;;;;7.18;6.28;;;;;;;15.70;68.97;101517.09;3617606;39;20407;-66
2023/05/21 06:09:54;;;;;;;6.95;6.25;;;;;;;15.74;68.74;101507.75;3618983;39;20067;-66
2023/05/21 06:12:20;;;;;;;9.40;7.20;;;;;;;15.79;68.87;101502.84;3616228;39;20458;-66
2023/05/21 06:14:47;;;;;;;6.72;6.03;;;;;;;15.85;68.28;101496.97;3617342;39;20062;-66
2023/05/21 06:17:13;;;;;;;7.40;6.70;;;;;;;15.91;69.05;101499.22;3615820;39;20069;-67
2023/05/21 06:19:39;;;;;;;6.95;6.18;;;;;;;15.96;68.24;101507.91;3615688;39;20342;-66
2023/05/21 06:22:04;;;;;;;7.50;6.35;;;;;;;15.67;68.62;101444.97;3604414;39;20062;-67
2023/05/21 06:24:30;;;;;;;7.40;6.65;;;;;;;16.13;67.73;101500.34;3614105;39;20043;-67
2023/05/21 06:26:56;;;;;;;7.57;6.20;;;;;;;16.28;67.10;101501.94;3614821;39;20124;-66
2023/05/21 06:29:21;;;;;;;8.02;6.38;;;;;;;16.45;68.04;101506.06;3615020;39;20050;-66
2023/05/21 06:31:47;;;;;;;6.95;6.25;;;;;;;16.23;66.30;101458.00;3614527;39;20050;-66
2023/05/21 06:34:13;;;;;;;7.53;6.35;;;;;;;16.60;66.56;101512.19;3613650;39;20584;-67
2023/05/21 06:36:39;;;;;;;8.35;6.85;;;;;;;16.66;66.61;101517.16;3614617;39;20131;-67
2023/05/21 06:39:05;;;;;;;7.45;6.35;;;;;;;16.75;66.05;101502.03;3614895;39;20057;-66
2023/05/21 06:41:30;;;;;;;7.72;6.95;;;;;;;16.83;66.22;101502.31;3616890;39;20051;-66
2023/05/21 06:43:56;;;;;;;8.80;6.50;;;;;;;16.96;65.47;101503.06;3614690;39;20093;-66
2023/05/21 06:46:21;;;;;;;7.05;6.00;;;;;;;17.09;65.43;101509.28;3617419;39;20047;-66
2023/05/21 06:48:47;;;;;;;7.20;6.50;;;;;;;17.23;64.08;101513.63;3615487;39;20062;-65
2023/05/21 06:51:13;;;;;;;7.82;6.43;;;;;;;17.26;63.35;101499.81;3613656;39;20071;-65
2023/05/21 06:53:38;;;;;;;7.40;6.63;;;;;;;17.41;63.91;101503.16;3614037;39;20051;-65
2023/05/21 06:56:04;;;;;;;7.38;6.32;;;;;;;17.54;63.55;101505.78;3615129;39;20154;-67
2023/05/21 06:58:30;;;;;;;7.35;6.18;;;;;;;17.62;63.27;101498.69;3616052;39;20055;-66
2023/05/21 07:01:00;;;;;;;7.28;6.57;;;;;;;17.73;62.55;101495.13;3614010;39;20047;-66
2023/05/21 07:03:26;;;;;;;7.60;6.38;;;;;;;17.82;63.57;101497.13;3614049;39;20047;-66
2023/05/21 07:05:56;;;;;;;7.75;6.63;;;;;;;18.00;63.05;101493.88;3614364;39;20128;-66
2023/05/21 07:08:21;;;;;;;6.38;5.70;;;;;;;18.14;61.84;101490.00;3619471;39;20057;-66
2023/05/21 07:10:48;;;;;;;7.30;6.60;;;;;;;18.12;61.75;101497.44;3615127;39;20430;-66
2023/05/21 07:13:14;;;;;;;6.97;6.30;;;;;;;18.15;61.29;101486.31;3614757;39;20051;-66
2023/05/21 07:15:40;;;;;;;7.57;6.18;;;;;;;18.22;62.31;101493.81;3616747;39;20050;-66
2023/05/21 07:18:06;;;;;;;10.50;6.68;;;;;;;18.37;61.23;101479.94;3614328;39;20094;-66
2023/05/21 07:20:32;;;;;;;9.88;6.80;;;;;;;18.42;61.15;101472.22;3613526;39;20063;-65
2023/05/21 07:22:57;;;;;;;7.57;6.45;;;;;;;18.47;60.37;101476.28;3614086;39;20055;-65
2023/05/21 07:25:23;;;;;;;6.93;6.30;;;;;;;18.63;61.21;101483.16;3614966;39;20050;-65
2023/05/21 07:27:49;;;;;;;7.28;6.35;;;;;;;18.81;60.53;101478.00;3615035;39;20058;-65
2023/05/21 07:30:14;;;;;;;7.28;6.13;;;;;;;18.94;60.00;101481.44;3613393;39;20341;-66
2023/05/21 07:32:40;;;;;;;6.88;6.25;;;;;;;19.08;59.03;101480.22;3613868;39;20043;-65
2023/05/21 07:35:06;;;;;;;7.22;6.38;;;;;;;19.17;59.44;101482.13;3613833;39;20093;-66
2023/05/21 07:37:31;;;;;;;7.22;6.50;;;;;;;19.19;57.99;101477.41;3613803;39;20050;-66
2023/05/21 07:39:57;;;;;;;7.15;6.45;;;;;;;19.27;58.37;101479.47;3613018;39;20191;-66
2023/05/21 07:42:24;;;;;;;7.55;6.68;;;;;;;19.39;58.42;101476.50;3613862;39;20114;-66
2023/05/21 07:44:49;;;;;;;7.18;6.30;;;;;;;19.46;58.67;101476.81;3616921;39;20414;-66
2023/05/21 07:47:15;;;;;;;6.90;6.30;;;;;;;19.56;57.87;101483.19;3617456;39;20070;-65
2023/05/21 07:49:40;;;;;;;7.38;6.68;;;;;;;19.67;60.03;101480.41;3616233;39;20062;-66
2023/05/21 07:52:06;;;;;;;7.15;6.45;;;;;;;19.73;58.40;101467.19;3613345;39;20062;-65
2023/05/21 07:54:32;;;;;;;7.18;6.15;;;;;;;19.99;58.05;101479.34;3613546;39;20111;-67
2023/05/21 07:56:57;;;;;;;7.30;6.60;;;;;;;20.13;55.90;101478.06;3614749;39;20050;-66
2023/05/21 07:59:24;;;;;;;9.48;7.20;;;;;;;20.24;56.12;101479.81;3612922;39;20054;-66
2023/05/21 08:01:50;;;;;;;8.70;6.82;;;;;;;20.12;55.73;101463.56;3615957;39;20388;-67
2023/05/21 08:04:16;;;;;;;7.78;6.95;;;;;;;20.14;56.11;101475.22;3616284;39;20062;-66
2023/05/21 08:06:41;;;;;;;7.43;6.72;;;;;;;20.16;56.85;101470.44;3623702;39;20066;-66
2023/05/21 08:09:07;;;;;;;8.55;7.13;;;;;;;20.20;56.89;101475.63;3615008;39;20055;-67
2023/05/21 08:11:33;;;;;;;13.57;7.70;;;;;;;20.27;55.79;101476.81;3617837;39;20402;-66
2023/05/21 08:13:59;;;;;;;8.98;7.57;;;;;;;20.40;56.19;101474.66;3616381;39;20046;-65
2023/05/21 08:16:25;;;;;;;8.10;6.88;;;;;;;20.55;54.69;101472.38;3614924;39;20108;-65
2023/05/21 08:18:50;;;;;;;9.30;7.35;;;;;;;20.53;55.41;101469.81;3613617;39;20059;-66
2023/05/21 08:21:16;;;;;;;8.30;7.47;;;;;;;20.57;55.31;101471.22;3617877;39;20055;-66
2023/05/21 08:23:43;;;;;;;8.13;6.90;;;;;;;20.76;55.66;101481.28;3617105;39;20386;-65
2023/05/21 08:26:08;;;;;;;8.27;7.43;;;;;;;20.97;56.16;101461.13;3615185;39;20050;-66
2023/05/21 08:28:37;;;;;;;9.38;7.15;;;;;;;21.13;53.77;101472.31;3617141;39;20065;-66
2023/05/21 08:31:03;;;;;;;9.10;7.75;;;;;;;21.28;54.70;101469.94;3614987;39;20083;-66
2023/05/21 08:33:29;;;;;;;9.90;7.72;;;;;;;21.40;53.27;101468.78;3616879;39;20085;-66
2023/05/21 08:35:54;;;;;;;8.48;7.00;;;;;;;21.44;53.25;101470.25;3612870;39;20047;-66
2023/05/21 08:38:20;;;;;;;9.13;8.15;;;;;;;21.49;53.18;101462.44;3613621;39;20050;-66
2023/05/21 08:40:48;;;;;;;8.10;7.30;;;;;;;21.65;53.54;101455.44;3614741;39;20054;-66
2023/05/21 08:43:16;;;;;;;8.77;7.10;;;;;;;21.67;52.79;101458.91;3617251;39;20061;-66
2023/05/21 08:45:54;;;;;;;8.00;7.20;;;;;;;21.44;53.01;101407.31;3619414;39;20094;-66
2023/05/21 08:48:23;;;;;;;8.70;7.15;;;;;;;21.83;51.98;101464.56;3617261;39;20358;-66
2023/05/21 08:50:54;;;;;;;8.93;7.32;;;;;;;21.87;52.73;101451.44;3619873;39;20059;-66
2023/05/21 08:53:22;;;;;;;9.82;7.95;;;;;;;22.00;52.20;101461.00;3619977;39;20058;-66
2023/05/21 08:55:51;;;;;;;8.10;7.40;;;;;;;21.85;50.69;101405.06;3617022;39;20502;-66
2023/05/21 08:58:17;;;;;;;8.80;7.68;;;;;;;22.16;51.19;101454.00;3605932;39;20043;-66
2023/05/21 09:00:43;;;;;;;9.73;7.40;;;;;;;22.30;52.23;101445.28;3615802;39;20086;-66
2023/05/21 09:03:12;;;;;;;9.55;7.75;;;;;;;22.40;50.99;101450.66;3616063;39;20069;-66
2023/05/21 09:05:41;;;;;;;11.18;7.78;;;;;;;22.47;50.02;101457.22;3614257;39;20049;-66
2023/05/21 09:08:26;;;;;;;10.27;8.48;;;;;;;22.41;50.93;101453.25;3612632;39;20055;-66
2023/05/21 09:10:52;;;;;;;8.65;7.35;;;;;;;22.45;50.97;101451.94;3603648;39;20047;-66
2023/05/21 09:13:19;;;;;;;8.75;7.85;;;;;;;22.61;51.07;101447.59;3614339;39;20065;-66
2023/05/21 09:15:46;;;;;;;10.05;7.95;;;;;;;22.71;49.95;101445.63;3614987;39;20051;-66
2023/05/21 09:18:13;;;;;;;9.90;7.90;;;;;;;22.92;49.88;101446.13;3616524;39;21425;-66
2023/05/21 09:20:39;;;;;;;10.40;8.00;;;;;;;23.07;49.51;101449.19;3614587;39;20309;-65
2023/05/21 09:23:15;;;;;;;12.27;8.38;;;;;;;23.17;48.63;101455.41;3614887;39;20049;-66
2023/05/21 09:25:46;;;;;;;8.85;7.22;;;;;;;23.15;48.56;101457.47;3615158;39;20050;-65
2023/05/21 09:28:14;;;;;;;9.07;7.53;;;;;;;23.09;50.23;101449.00;3615693;39;20067;-66
2023/05/21 09:30:52;;;;;;;9.70;7.38;;;;;;;23.08;48.79;101455.53;3620224;39;20047;-68
2023/05/21 09:33:28;;;;;;;8.73;7.63;;;;;;;22.72;49.68;101411.72;3614829;39;20073;-66
2023/05/21 09:35:54;;;;;;;10.18;7.50;;;;;;;22.87;51.23;101451.25;3618984;39;20358;-66
2023/05/21 09:38:24;;;;;;;8.45;7.45;;;;;;;22.83;50.93;101440.75;3615962;39;20059;-66
2023/05/21 09:40:55;;;;;;;8.48;7.35;;;;;;;22.94;50.00;101438.63;3614687;39;20051;-65
2023/05/21 09:43:20;;;;;;;9.40;7.95;;;;;;;23.03;49.94;101441.44;3622480;39;20426;-67
2023/05/21 09:45:55;;;;;;;8.73;7.82;;;;;;;23.11;50.45;101444.22;3620917;39;20054;-66
2023/05/21 09:48:42;;;;;;;10.85;8.23;;;;;;;23.27;49.28;101433.34;3615854;39;20054;-67
2023/05/21 09:51:10;;;;;;;8.20;7.40;;;;;;;23.44;50.10;101434.31;3614790;39;20047;-66
2023/05/21 09:53:41;;;;;;;9.15;8.25;;;;;;;23.62;49.58;101437.78;3616850;39;20053;-66
2023/05/21 09:56:08;;;;;;;11.65;7.63;;;;;;;23.58;48.30;101408.13;3618399;39;20054;-66
2023/05/21 09:58:33;;;;;;;11.02;8.25;;;;;;;23.99;48.99;101439.34;3615436;39;20059;-67
2023/05/21 10:00:59;;;;;;;9.10;7.82;;;;;;;24.28;47.28;101433.38;3614321;39;20401;-67
2023/05/21 10:03:27;;;;;;;8.40;7.60;;;;;;;24.42;46.51;101433.75;3621547;39;20122;-66
2023/05/21 10:05:58;;;;;;;8.55;7.65;;;;;;;24.55;47.22;101436.88;3614378;39;20355;-66
2023/05/21 10:08:34;;;;;;;7.55;6.85;;;;;;;24.63;46.51;101433.25;3614030;39;20058;-66
2023/05/21 10:11:04;;;;;;;9.82;8.18;;;;;;;24.74;45.52;101420.03;3614179;39;20055;-66
2023/05/21 10:13:37;;;;;;;9.63;7.60;;;;;;;24.67;46.54;101385.13;3615637;39;20062;-66
2023/05/21 10:16:04;;;;;;;9.68;8.10;;;;;;;25.17;45.96;101417.91;3614060;39;20059;-66
2023/05/21 10:18:32;;;;;;;9.13;7.78;;;;;;;25.24;45.99;101402.41;3614310;39;20058;-65
2023/05/21 10:20:59;;;;;;;8.93;8.13;;;;;;;25.21;46.10;101413.78;3614602;39;20151;-66
2023/05/21 10:23:28;;;;;;;8.20;7.40;;;;;;;24.97;45.40;101369.81;3613805;39;20081;-66
2023/05/21 10:25:57;;;;;;;9.88;8.60;;;;;;;25.01;45.67;101406.91;3614962;39;20118;-65
2023/05/21 10:28:23;;;;;;;9.88;8.27;;;;;;;24.88;45.58;101392.84;3616888;39;20327;-66
2023/05/21 10:30:49;;;;;;;9.88;8.25;;;;;;;25.12;45.08;101405.69;3614731;39;20043;-66
2023/05/21 10:33:15;;;;;;;8.15;7.28;;;;;;;25.34;45.93;101415.09;3613888;39;20086;-66
2023/05/21 10:35:45;;;;;;;8.38;7.38;;;;;;;25.41;44.58;101385.84;3614437;39;20062;-65
2023/05/21 10:38:13;;;;;;;9.98;8.05;;;;;;;25.67;45.34;101397.41;3614448;39;20054;-66
2023/05/21 10:40:39;;;;;;;10.00;8.00;;;;;;;25.73;44.60;101397.75;3615117;39;20058;-67
2023/05/21 10:43:29;;;;;;;9.38;8.38;;;;;;;25.63;44.06;101407.09;3617538;39;20374;-66
2023/05/21 10:46:19;;;;;;;10.27;8.82;;;;;;;25.73;44.91;101383.97;3616903;39;20051;-66
2023/05/21 10:49:25;;;;;;;11.30;8.25;;;;;;;26.02;45.63;101384.16;3616290;39;20156;-66
2023/05/21 10:52:10;;;;;;;16.77;14.77;;;;;;;26.07;42.64;101386.34;3614137;39;20097;-66
2023/05/21 10:55:22;;;;;;;10.57;8.10;;;;;;;26.22;42.63;101378.16;3615375;39;20050;-66
2023/05/21 10:58:12;;;;;;;9.23;7.88;;;;;;;26.46;42.36;101382.63;3615185;39;20131;-65
2023/05/21 11:00:41;;;;;;;10.07;8.70;;;;;;;26.47;42.69;101368.66;3615458;39;20533;-66
2023/05/21 11:03:11;;;;;;;8.93;8.02;;;;;;;26.65;41.62;101373.00;3614952;39;20063;-65
2023/05/21 11:06:01;;;;;;;9.10;8.20;;;;;;;26.74;42.57;101372.75;3614132;39;20062;-65
2023/05/21 11:08:37;;;;;;;9.98;8.77;;;;;;;26.75;42.26;101362.56;3614374;39;20063;-67
2023/05/21 11:11:03;;;;;;;10.00;8.02;;;;;;;26.79;42.68;101363.88;3613443;39;20047;-67
2023/05/21 11:13:49;;;;;;;11.23;9.55;;;;;;;26.67;42.30;101365.38;3614129;39;20090;-67
2023/05/21 11:16:17;;;;;;;11.18;8.57;;;;;;;26.46;42.47;101355.91;3613925;39;21326;-67
2023/05/21 11:18:45;;;;;;;10.75;9.60;;;;;;;26.58;42.62;101346.19;3613955;39;20412;-66
2023/05/21 11:21:16;;;;;;;12.02;9.38;;;;;;;26.68;42.83;101336.78;3613592;39;20070;-67
2023/05/21 11:23:51;;;;;;;13.95;10.15;;;;;;;27.05;42.24;101324.78;3613873;39;20348;-67
2023/05/21 11:26:46;;;;;;;10.00;8.93;;;;;;;27.23;42.73;101333.56;3618191;39;20385;-67
2023/05/21 11:29:11;;;;;;;11.02;9.63;;;;;;;27.54;40.29;101341.63;3613825;39;20064;-66